Time;durP1;ratioP1;P1;durP2;ratioP2;P2;SDS_P1;SDS_P2;PMS_P1;PMS_P2;Temp;Humidity;BMP_temperature;BMP_pressure;BME280_temperature;BME280_humidity;BME280_pressure;Samples;Min_cycle;Max_cycle;Signal;HPM_P1;HPM_P2
2021/04/27 00:00:01;;;;;;;;;38.50;34.75;;;;;;;;3724974;37;20040;-61
2021/04/27 00:02:29;;;;;;;;;34.00;32.50;;;;;;;;3725568;38;20046;-60
2021/04/27 00:04:54;;;;;;;;;40.25;35.50;;;;;;;;3725254;38;20028;-62
2021/04/27 00:07:20;;;;;;;;;42.50;35.75;;;;;;;;3725926;38;20124;-62
2021/04/27 00:09:47;;;;;;;;;41.25;36.00;;;;;;;;3726037;37;18557;-62
2021/04/27 00:12:13;;;;;;;;;44.25;38.00;;;;;;;;3726213;37;17560;-61
2021/04/27 00:14:39;;;;;;;;;46.75;40.00;;;;;;;;3725469;37;20041;-62
2021/04/27 00:17:05;;;;;;;;;47.00;39.50;;;;;;;;3725219;37;17550;-62
2021/04/27 00:19:31;;;;;;;;;47.25;40.50;;;;;;;;3725126;37;17559;-63
2021/04/27 00:21:57;;;;;;;;;45.00;39.25;;;;;;;;3725339;38;17545;-65
2021/04/27 00:24:23;;;;;;;;;49.25;42.25;;;;;;;;3724791;37;18526;-62
2021/04/27 00:26:49;;;;;;;;;50.75;41.50;;;;;;;;3725178;38;20992;-61
2021/04/27 00:29:14;;;;;;;;;47.00;40.75;;;;;;;;3724980;38;17535;-65
2021/04/27 00:31:41;;;;;;;;;38.25;33.75;;;;;;;;3725249;38;18518;-61
2021/04/27 00:34:07;;;;;;;;;45.50;38.00;;;;;;;;3724850;37;17548;-62
2021/04/27 00:36:32;;;;;;;;;46.75;39.25;;;;;;;;3725108;37;20995;-61
2021/04/27 00:38:58;;;;;;;;;43.75;37.25;;;;;;;;3725037;37;18517;-62
2021/04/27 00:41:25;;;;;;;;;45.75;39.50;;;;;;;;3725122;37;18504;-63
2021/04/27 00:43:54;;;;;;;;;41.50;36.50;;;;;;;;3724824;37;18505;-64
2021/04/27 00:46:20;;;;;;;;;40.50;36.00;;;;;;;;3725171;38;20989;-62
2021/04/27 00:48:45;;;;;;;;;42.50;36.75;;;;;;;;3724956;38;18525;-63
2021/04/27 00:51:11;;;;;;;;;44.00;37.50;;;;;;;;3725142;38;18505;-64
2021/04/27 00:53:38;;;;;;;;;45.50;39.00;;;;;;;;3725128;38;18493;-61
2021/04/27 00:56:05;;;;;;;;;38.25;34.75;;;;;;;;3724718;38;20974;-62
2021/04/27 00:58:33;;;;;;;;;37.75;34.75;;;;;;;;3725080;37;20960;-62
2021/04/27 01:01:00;;;;;;;;;37.25;34.25;;;;;;;;3724577;37;20959;-63
2021/04/27 01:03:32;;;;;;;;;36.75;32.50;;;;;;;;3724983;38;20964;-61
2021/04/27 01:05:58;;;;;;;;;32.50;30.75;;;;;;;;3725004;37;20976;-61
2021/04/27 01:08:42;;;;;;;;;32.75;31.50;;;;;;;;3725020;37;20908;-61
2021/04/27 01:11:16;;;;;;;;;34.25;33.00;;;;;;;;3725009;37;18469;-62
2021/04/27 01:13:51;;;;;;;;;34.75;32.25;;;;;;;;3724673;38;20974;-61
2021/04/27 01:16:17;;;;;;;;;39.75;35.25;;;;;;;;3724799;37;20912;-61
2021/04/27 01:18:46;;;;;;;;;34.50;32.25;;;;;;;;3725227;37;20935;-63
2021/04/27 01:21:13;;;;;;;;;25.50;25.50;;;;;;;;3724749;38;20947;-63
2021/04/27 01:23:47;;;;;;;;;34.25;32.50;;;;;;;;3725151;38;20882;-63
2021/04/27 01:26:16;;;;;;;;;29.75;29.75;;;;;;;;3725116;37;20887;-63
2021/04/27 01:28:42;;;;;;;;;31.00;30.75;;;;;;;;3725144;38;20884;-59
2021/04/27 01:31:09;;;;;;;;;28.50;27.50;;;;;;;;3725406;37;21124;-60
2021/04/27 01:33:36;;;;;;;;;31.75;31.00;;;;;;;;3725834;37;18444;-63
2021/04/27 01:36:03;;;;;;;;;31.25;30.50;;;;;;;;3725178;38;20858;-62
2021/04/27 01:38:30;;;;;;;;;36.75;33.25;;;;;;;;3725154;38;20867;-61
2021/04/27 01:40:56;;;;;;;;;31.00;30.50;;;;;;;;3724722;38;20868;-63
2021/04/27 01:43:25;;;;;;;;;34.75;32.00;;;;;;;;3725191;38;20888;-64
2021/04/27 01:46:01;;;;;;;;;32.50;30.75;;;;;;;;3724650;38;20881;-63
2021/04/27 01:48:28;;;;;;;;;29.00;28.50;;;;;;;;3724741;38;20847;-63
2021/04/27 01:50:54;;;;;;;;;28.25;27.50;;;;;;;;3724687;38;20846;-62
2021/04/27 01:53:22;;;;;;;;;33.00;31.75;;;;;;;;3725153;37;20875;-60
2021/04/27 01:55:48;;;;;;;;;37.00;32.75;;;;;;;;3725038;38;20853;-62
2021/04/27 01:58:14;;;;;;;;;34.00;31.50;;;;;;;;3725120;37;20860;-60
2021/04/27 02:00:41;;;;;;;;;30.25;29.25;;;;;;;;3724982;37;20834;-61
2021/04/27 02:03:08;;;;;;;;;32.00;30.75;;;;;;;;3724695;37;18420;-64
2021/04/27 02:05:33;;;;;;;;;33.25;31.25;;;;;;;;3724725;38;20931;-62
2021/04/27 02:08:00;;;;;;;;;30.25;30.00;;;;;;;;3724968;37;20834;-61
2021/04/27 02:10:26;;;;;;;;;32.75;31.25;;;;;;;;3725159;37;18414;-62
2021/04/27 02:12:54;;;;;;;;;31.25;31.25;;;;;;;;3725006;37;20828;-60
2021/04/27 02:15:21;;;;;;;;;27.75;27.25;;;;;;;;3724732;38;20823;-60
2021/04/27 02:18:07;;;;;;;;;34.00;32.75;;;;;;;;3725146;38;20864;-61
2021/04/27 02:20:34;;;;;;;;;31.50;31.00;;;;;;;;3724963;37;20882;-62
2021/04/27 02:23:01;;;;;;;;;33.25;31.50;;;;;;;;3725069;38;20885;-60
2021/04/27 02:25:27;;;;;;;;;30.50;30.00;;;;;;;;3725006;38;18407;-61
2021/04/27 02:27:54;;;;;;;;;37.50;34.25;;;;;;;;3725031;38;20855;-62
2021/04/27 02:30:23;;;;;;;;;29.25;26.50;;;;;;;;3724531;37;21325;-63
2021/04/27 02:32:50;;;;;;;;;35.25;33.75;;;;;;;;3724953;37;20879;-64
2021/04/27 02:35:18;;;;;;;;;36.25;32.75;;;;;;;;3724946;37;20854;-62
2021/04/27 02:37:45;;;;;;;;;31.25;29.50;;;;;;;;3725019;37;20859;-62
2021/04/27 02:40:13;;;;;;;;;36.25;34.25;;;;;;;;3724744;38;20854;-61
2021/04/27 02:42:39;;;;;;;;;35.25;31.50;;;;;;;;3724676;38;20900;-62
2021/04/27 02:45:11;;;;;;;;;32.50;31.25;;;;;;;;3724561;38;20847;-63
2021/04/27 02:47:36;;;;;;;;;42.75;36.75;;;;;;;;3724662;37;18340;-61
2021/04/27 02:50:03;;;;;;;;;37.50;34.50;;;;;;;;3725260;38;20838;-61
2021/04/27 02:52:29;;;;;;;;;38.75;33.75;;;;;;;;3725081;37;20835;-61
2021/04/27 02:54:56;;;;;;;;;36.50;34.25;;;;;;;;3724968;37;20802;-63
2021/04/27 02:57:22;;;;;;;;;40.25;36.00;;;;;;;;3725059;37;20813;-64
2021/04/27 02:59:48;;;;;;;;;35.25;33.50;;;;;;;;3725104;37;18315;-62
2021/04/27 03:02:14;;;;;;;;;38.75;34.75;;;;;;;;3724757;38;18330;-64
2021/04/27 03:04:39;;;;;;;;;41.00;35.50;;;;;;;;3724968;38;20820;-63
2021/04/27 03:07:05;;;;;;;;;35.25;33.75;;;;;;;;3725028;38;18330;-62
2021/04/27 03:09:31;;;;;;;;;24.25;24.25;;;;;;;;3725230;37;18320;-63
2021/04/27 03:11:57;;;;;;;;;30.00;30.00;;;;;;;;3725218;37;18344;-63
2021/04/27 03:14:22;;;;;;;;;32.50;32.25;;;;;;;;3725068;37;18313;-61
2021/04/27 03:16:48;;;;;;;;;33.75;32.50;;;;;;;;3725166;37;18311;-61
2021/04/27 03:19:15;;;;;;;;;40.00;35.25;;;;;;;;3725186;38;18297;-63
2021/04/27 03:21:44;;;;;;;;;41.25;37.50;;;;;;;;3725446;37;18319;-61
2021/04/27 03:24:10;;;;;;;;;50.50;41.50;;;;;;;;3725206;37;20793;-60
2021/04/27 03:26:35;;;;;;;;;34.00;33.00;;;;;;;;3724975;37;20793;-61
2021/04/27 03:29:01;;;;;;;;;36.00;33.50;;;;;;;;3725403;37;20771;-65
2021/04/27 03:31:27;;;;;;;;;43.50;37.50;;;;;;;;3725205;38;18300;-62
2021/04/27 03:33:54;;;;;;;;;29.00;27.25;;;;;;;;3725031;38;18292;-64
2021/04/27 03:36:20;;;;;;;;;32.25;30.25;;;;;;;;3725240;38;18277;-62
2021/04/27 03:38:47;;;;;;;;;29.75;27.00;;;;;;;;3725400;37;20699;-61
2021/04/27 03:41:14;;;;;;;;;35.25;32.75;;;;;;;;3725018;37;18277;-63
2021/04/27 03:43:40;;;;;;;;;33.50;32.00;;;;;;;;3725701;37;20741;-62
2021/04/27 03:46:06;;;;;;;;;38.25;34.00;;;;;;;;3725904;38;20885;-63
2021/04/27 03:48:32;;;;;;;;;33.00;30.25;;;;;;;;3730030;37;18263;-63
2021/04/27 03:50:58;;;;;;;;;25.75;25.75;;;;;;;;3730507;37;20768;-63
2021/04/27 03:53:25;;;;;;;;;32.50;32.00;;;;;;;;3729512;38;20752;-60
2021/04/27 03:55:51;;;;;;;;;31.75;30.75;;;;;;;;3729349;37;20892;-62
2021/04/27 03:58:16;;;;;;;;;29.75;28.50;;;;;;;;3729432;38;20691;-61
2021/04/27 04:00:42;;;;;;;;;32.75;32.00;;;;;;;;3729616;38;18245;-64
2021/04/27 04:03:15;;;;;;;;;27.50;27.25;;;;;;;;3726144;37;18238;-62
2021/04/27 04:05:42;;;;;;;;;30.00;29.75;;;;;;;;3725247;38;20714;-63
2021/04/27 04:08:08;;;;;;;;;31.25;30.75;;;;;;;;3725047;37;20718;-61
2021/04/27 04:10:33;;;;;;;;;31.50;30.50;;;;;;;;3726409;38;20692;-60
2021/04/27 04:13:00;;;;;;;;;25.75;25.75;;;;;;;;3727557;38;18244;-63
2021/04/27 04:15:25;;;;;;;;;45.00;39.25;;;;;;;;3725663;37;18225;-63
2021/04/27 04:17:51;;;;;;;;;39.50;36.25;;;;;;;;3725202;37;20691;-63
2021/04/27 04:20:22;;;;;;;;;26.25;26.00;;;;;;;;3725347;37;18489;-64
2021/04/27 04:22:50;;;;;;;;;27.25;24.25;;;;;;;;3725456;37;18236;-60
2021/04/27 04:25:17;;;;;;;;;31.00;30.75;;;;;;;;3725205;37;20662;-62
2021/04/27 04:27:56;;;;;;;;;29.50;29.00;;;;;;;;3725148;37;20636;-61
2021/04/27 04:30:24;;;;;;;;;30.50;29.00;;;;;;;;3725220;38;20663;-62
2021/04/27 04:32:51;;;;;;;;;26.50;25.25;;;;;;;;3724813;37;20631;-62
2021/04/27 04:35:19;;;;;;;;;25.50;25.00;;;;;;;;3725230;37;20642;-63
2021/04/27 04:37:44;;;;;;;;;26.50;25.00;;;;;;;;3724974;37;20648;-61
2021/04/27 04:40:12;;;;;;;;;28.50;27.00;;;;;;;;3724881;38;21096;-62
2021/04/27 04:42:38;;;;;;;;;36.75;34.50;;;;;;;;3725452;37;18195;-64
2021/04/27 04:45:08;;;;;;;;;34.75;32.25;;;;;;;;3725247;37;20750;-63
2021/04/27 04:47:34;;;;;;;;;32.50;31.25;;;;;;;;3725401;38;20781;-61
2021/04/27 04:50:01;;;;;;;;;28.50;26.75;;;;;;;;3724706;38;20648;-62
2021/04/27 04:52:26;;;;;;;;;24.25;24.00;;;;;;;;3725199;38;18200;-60
2021/04/27 04:55:01;;;;;;;;;32.50;32.00;;;;;;;;3725135;37;20619;-61
2021/04/27 04:57:27;;;;;;;;;31.25;29.50;;;;;;;;3725121;37;20913;-62
2021/04/27 04:59:52;;;;;;;;;34.25;31.00;;;;;;;;3724997;37;20673;-61
2021/04/27 05:02:18;;;;;;;;;31.50;31.50;;;;;;;;3725258;38;18180;-65
2021/04/27 05:04:44;;;;;;;;;27.50;26.50;;;;;;;;3725130;38;18171;-62
2021/04/27 05:07:12;;;;;;;;;25.50;25.25;;;;;;;;3725130;37;18148;-64
2021/04/27 05:09:38;;;;;;;;;27.75;27.25;;;;;;;;3725135;37;18182;-61
2021/04/27 05:12:06;;;;;;;;;26.00;25.50;;;;;;;;3725213;37;20580;-65
2021/04/27 05:14:33;;;;;;;;;33.00;31.75;;;;;;;;3724683;38;20607;-60
2021/04/27 05:17:00;;;;;;;;;30.50;28.25;;;;;;;;3725287;38;20578;-64
2021/04/27 05:19:27;;;;;;;;;25.50;25.25;;;;;;;;3725258;37;20573;-63
2021/04/27 05:21:53;;;;;;;;;26.25;26.25;;;;;;;;3725080;38;18138;-63
2021/04/27 05:24:21;;;;;;;;;40.75;35.75;;;;;;;;3725359;37;20569;-62
2021/04/27 05:26:46;;;;;;;;;30.50;29.25;;;;;;;;3725629;38;18129;-64
2021/04/27 05:29:13;;;;;;;;;26.25;25.25;;;;;;;;3724672;38;20587;-66
2021/04/27 05:31:42;;;;;;;;;34.25;31.75;;;;;;;;3724869;38;18123;-63
2021/04/27 05:34:09;;;;;;;;;33.75;32.00;;;;;;;;3725384;37;20572;-62
2021/04/27 05:36:35;;;;;;;;;21.50;21.50;;;;;;;;3725355;37;18109;-61
2021/04/27 05:39:00;;;;;;;;;30.50;29.75;;;;;;;;3725195;37;20583;-62
2021/04/27 05:41:27;;;;;;;;;30.50;30.50;;;;;;;;3725249;37;18135;-61
2021/04/27 05:43:53;;;;;;;;;37.75;34.00;;;;;;;;3725134;38;20551;-59
2021/04/27 05:46:20;;;;;;;;;36.00;33.00;;;;;;;;3725158;37;20577;-66
2021/04/27 05:48:53;;;;;;;;;30.50;30.50;;;;;;;;3725136;38;20614;-68
2021/04/27 05:51:19;;;;;;;;;29.50;27.25;;;;;;;;3724900;38;20599;-65
2021/04/27 05:53:45;;;;;;;;;27.50;26.75;;;;;;;;3724801;37;20557;-64
2021/04/27 05:56:11;;;;;;;;;30.00;30.00;;;;;;;;3725135;38;20541;-65
2021/04/27 05:58:37;;;;;;;;;28.25;26.75;;;;;;;;3725301;37;18110;-65
2021/04/27 06:01:03;;;;;;;;;28.50;28.50;;;;;;;;3724844;37;18077;-66
2021/04/27 06:03:29;;;;;;;;;30.75;30.25;;;;;;;;3725356;37;20541;-68
2021/04/27 06:05:54;;;;;;;;;33.00;31.75;;;;;;;;3725235;37;18070;-67
2021/04/27 06:08:20;;;;;;;;;39.50;35.50;;;;;;;;3725257;38;18099;-67
2021/04/27 06:10:46;;;;;;;;;28.75;28.25;;;;;;;;3725279;38;18082;-65
2021/04/27 06:13:13;;;;;;;;;26.50;26.50;;;;;;;;3725335;37;18069;-66
2021/04/27 06:15:39;;;;;;;;;28.00;27.00;;;;;;;;3725350;37;20551;-66
2021/04/27 06:18:05;;;;;;;;;22.00;21.00;;;;;;;;3725215;38;20502;-65
2021/04/27 06:20:31;;;;;;;;;26.50;25.50;;;;;;;;3725499;37;18077;-64
2021/04/27 06:22:57;;;;;;;;;24.25;23.50;;;;;;;;3725454;38;18071;-66
2021/04/27 06:25:23;;;;;;;;;26.25;25.75;;;;;;;;3725289;37;18067;-64
2021/04/27 06:27:49;;;;;;;;;23.00;20.75;;;;;;;;3725189;38;20511;-66
2021/04/27 06:30:16;;;;;;;;;22.25;22.25;;;;;;;;3725364;37;18062;-68
2021/04/27 06:32:42;;;;;;;;;27.25;26.50;;;;;;;;3725296;37;18076;-65
2021/04/27 06:35:09;;;;;;;;;20.75;20.75;;;;;;;;3725319;38;20495;-65
2021/04/27 06:37:35;;;;;;;;;21.50;19.75;;;;;;;;3725429;38;20488;-66
2021/04/27 06:40:02;;;;;;;;;26.25;23.75;;;;;;;;3725583;38;20485;-66
2021/04/27 06:42:28;;;;;;;;;29.00;27.25;;;;;;;;3725421;37;18089;-67
2021/04/27 06:44:54;;;;;;;;;25.50;25.00;;;;;;;;3725482;38;20461;-66
2021/04/27 06:47:19;;;;;;;;;31.00;29.25;;;;;;;;3725465;38;18109;-65
2021/04/27 06:49:45;;;;;;;;;18.00;18.00;;;;;;;;3726980;37;20467;-63
2021/04/27 06:52:11;;;;;;;;;20.75;19.75;;;;;;;;3725511;38;18023;-64
2021/04/27 06:54:37;;;;;;;;;17.25;16.50;;;;;;;;3725605;37;18032;-66
2021/04/27 06:57:03;;;;;;;;;19.25;17.75;;;;;;;;3725265;38;18010;-67
2021/04/27 06:59:31;;;;;;;;;21.25;18.50;;;;;;;;3725307;38;18009;-65
2021/04/27 07:01:58;;;;;;;;;21.25;20.00;;;;;;;;3725029;37;20436;-65
2021/04/27 07:04:24;;;;;;;;;16.50;16.50;;;;;;;;3725259;38;20454;-67
2021/04/27 07:06:50;;;;;;;;;25.25;25.25;;;;;;;;3725364;37;20443;-66
2021/04/27 07:09:16;;;;;;;;;19.50;18.25;;;;;;;;3725329;38;17985;-65
2021/04/27 07:11:42;;;;;;;;;25.75;24.75;;;;;;;;3725364;37;18024;-66
2021/04/27 07:14:07;;;;;;;;;27.25;27.25;;;;;;;;3725643;38;17990;-65
2021/04/27 07:16:33;;;;;;;;;28.50;27.25;;;;;;;;3725120;37;17998;-67
2021/04/27 07:18:59;;;;;;;;;21.50;21.25;;;;;;;;3725539;37;17976;-66
2021/04/27 07:21:25;;;;;;;;;16.50;15.00;;;;;;;;3725077;37;17977;-67
2021/04/27 07:23:51;;;;;;;;;23.00;22.00;;;;;;;;3725235;38;17985;-67
2021/04/27 07:26:17;;;;;;;;;23.50;23.25;;;;;;;;3724790;37;20426;-66
2021/04/27 07:28:43;;;;;;;;;29.50;29.00;;;;;;;;3725133;38;20408;-67
2021/04/27 07:31:10;;;;;;;;;19.50;19.50;;;;;;;;3725353;37;17980;-67
2021/04/27 07:33:36;;;;;;;;;23.75;22.25;;;;;;;;3725377;37;17980;-69
2021/04/27 07:36:02;;;;;;;;;20.00;18.75;;;;;;;;3725093;38;20385;-68
2021/04/27 07:38:28;;;;;;;;;17.00;16.50;;;;;;;;3725370;38;17978;-69
2021/04/27 07:40:54;;;;;;;;;20.00;19.00;;;;;;;;3725539;38;20362;-70
2021/04/27 07:43:19;;;;;;;;;24.00;22.25;;;;;;;;3725290;37;17944;-68
2021/04/27 07:45:45;;;;;;;;;22.50;21.00;;;;;;;;3725310;37;17939;-68
2021/04/27 07:48:14;;;;;;;;;22.25;19.50;;;;;;;;3725502;38;17968;-67
2021/04/27 07:50:40;;;;;;;;;25.00;24.00;;;;;;;;3725430;38;17933;-71
2021/04/27 07:53:05;;;;;;;;;22.25;20.50;;;;;;;;3725406;38;20386;-67
2021/04/27 07:55:32;;;;;;;;;22.50;22.00;;;;;;;;3725452;37;17933;-66
2021/04/27 07:57:58;;;;;;;;;21.50;21.00;;;;;;;;3725211;38;20372;-66
2021/04/27 08:00:24;;;;;;;;;19.00;19.00;;;;;;;;3725120;38;21052;-65
2021/04/27 08:02:51;;;;;;;;;19.00;18.25;;;;;;;;3724897;37;18017;-67
2021/04/27 08:05:18;;;;;;;;;21.25;21.00;;;;;;;;3724849;38;21097;-67
2021/04/27 08:07:44;;;;;;;;;19.75;19.00;;;;;;;;3724976;37;21105;-66
2021/04/27 08:10:13;;;;;;;;;22.00;21.25;;;;;;;;3724962;37;21077;-66
2021/04/27 08:12:41;;;;;;;;;21.50;21.50;;;;;;;;3724955;37;18023;-68
2021/04/27 08:15:07;;;;;;;;;21.00;19.75;;;;;;;;3724936;38;21072;-66
2021/04/27 08:17:33;;;;;;;;;24.75;21.50;;;;;;;;3724591;37;21132;-66
2021/04/27 08:20:00;;;;;;;;;25.25;24.00;;;;;;;;3724511;38;21100;-67
2021/04/27 08:22:25;;;;;;;;;25.25;24.25;;;;;;;;3724631;38;18251;-66
2021/04/27 08:24:51;;;;;;;;;25.75;25.00;;;;;;;;3725076;37;21082;-66
2021/04/27 08:27:17;;;;;;;;;25.00;23.50;;;;;;;;3724535;37;18011;-69
2021/04/27 08:29:43;;;;;;;;;23.00;22.00;;;;;;;;3725304;37;17997;-66
2021/04/27 08:32:10;;;;;;;;;21.25;20.50;;;;;;;;3725352;37;18010;-68
2021/04/27 08:34:36;;;;;;;;;16.00;15.50;;;;;;;;3725242;37;17984;-67
2021/04/27 08:37:02;;;;;;;;;20.00;20.00;;;;;;;;3724975;37;21008;-67
2021/04/27 08:39:28;;;;;;;;;19.75;18.75;;;;;;;;3724851;37;18009;-67
2021/04/27 08:41:55;;;;;;;;;20.00;19.25;;;;;;;;3725237;38;21065;-66
2021/04/27 08:44:21;;;;;;;;;17.00;17.00;;;;;;;;3717963;38;21295;-67
2021/04/27 08:46:47;;;;;;;;;18.00;17.50;;;;;;;;3720229;37;21045;-67
2021/04/27 08:49:12;;;;;;;;;14.25;13.50;;;;;;;;3724691;38;21026;-67
2021/04/27 08:51:38;;;;;;;;;15.00;14.00;;;;;;;;3725107;38;18131;-66
2021/04/27 08:54:05;;;;;;;;;13.75;13.75;;;;;;;;3725317;38;17991;-65
2021/04/27 08:56:32;;;;;;;;;20.25;18.75;;;;;;;;3724584;38;17959;-65
2021/04/27 08:58:58;;;;;;;;;21.00;18.75;;;;;;;;3725310;38;21041;-64
2021/04/27 09:01:24;;;;;;;;;20.00;18.00;;;;;;;;3725054;37;20974;-65
2021/04/27 09:03:51;;;;;;;;;16.00;15.25;;;;;;;;3724950;37;21090;-66
2021/04/27 09:06:19;;;;;;;;;22.50;21.25;;;;;;;;3725175;37;18008;-67
2021/04/27 09:08:45;;;;;;;;;19.50;19.00;;;;;;;;3724681;37;21031;-66
2021/04/27 09:11:29;;;;;;;;;18.50;17.75;;;;;;;;3725102;37;21013;-65
2021/04/27 09:14:15;;;;;;;;;18.50;18.00;;;;;;;;3725060;38;21020;-66
2021/04/27 09:16:51;;;;;;;;;18.50;18.50;;;;;;;;3724997;38;21182;-65
2021/04/27 09:19:38;;;;;;;;;16.75;16.75;;;;;;;;3725136;37;20980;-68
2021/04/27 09:22:08;;;;;;;;;17.25;17.25;;;;;;;;3725202;37;20978;-65
2021/04/27 09:24:36;;;;;;;;;21.00;19.75;;;;;;;;3724912;38;20981;-65
2021/04/27 09:27:02;;;;;;;;;19.75;19.75;;;;;;;;3725981;37;20986;-67
2021/04/27 09:29:29;;;;;;;;;16.25;16.25;;;;;;;;3725634;38;21004;-66
2021/04/27 09:31:55;;;;;;;;;17.50;17.50;;;;;;;;3724909;37;20978;-66
2021/04/27 09:34:28;;;;;;;;;15.75;14.25;;;;;;;;3724904;37;20985;-65
2021/04/27 09:37:01;;;;;;;;;16.00;14.00;;;;;;;;3724942;37;17884;-65
2021/04/27 09:39:32;;;;;;;;;35.50;31.75;;;;;;;;3725124;37;20953;-66
2021/04/27 09:42:08;;;;;;;;;17.00;14.50;;;;;;;;3724868;37;20969;-65
2021/04/27 09:44:39;;;;;;;;;15.25;14.50;;;;;;;;3724875;38;20952;-65
2021/04/27 09:47:09;;;;;;;;;18.00;17.00;;;;;;;;3725041;38;20965;-67
2021/04/27 09:49:34;;;;;;;;;17.50;17.00;;;;;;;;3725275;38;20954;-67
2021/04/27 09:52:00;;;;;;;;;15.75;14.75;;;;;;;;3724984;38;20953;-66
2021/04/27 09:54:26;;;;;;;;;15.00;15.00;;;;;;;;3725264;37;17903;-66
2021/04/27 09:56:57;;;;;;;;;16.00;15.50;;;;;;;;3724934;38;20989;-68
2021/04/27 09:59:28;;;;;;;;;12.50;11.25;;;;;;;;3724893;37;17898;-65
2021/04/27 10:01:56;;;;;;;;;11.50;11.50;;;;;;;;3724688;38;20927;-64
2021/04/27 10:04:22;;;;;;;;;13.50;13.50;;;;;;;;3725027;38;20987;-65
2021/04/27 10:06:50;;;;;;;;;12.00;12.00;;;;;;;;3725242;38;20910;-65
2021/04/27 10:09:16;;;;;;;;;11.50;11.00;;;;;;;;3725280;38;20947;-65
2021/04/27 10:11:42;;;;;;;;;13.25;13.25;;;;;;;;3725317;38;20867;-66
2021/04/27 10:14:11;;;;;;;;;12.50;11.00;;;;;;;;3725391;37;20937;-65
2021/04/27 10:16:38;;;;;;;;;12.75;11.50;;;;;;;;3724695;38;20858;-65
2021/04/27 10:19:04;;;;;;;;;14.00;14.00;;;;;;;;3724344;38;20910;-64
2021/04/27 10:21:30;;;;;;;;;14.50;12.50;;;;;;;;3724639;37;20916;-65
2021/04/27 10:24:00;;;;;;;;;9.00;8.50;;;;;;;;3724650;37;20869;-65
2021/04/27 10:26:27;;;;;;;;;7.25;7.25;;;;;;;;3724366;38;20773;-64
2021/04/27 10:28:57;;;;;;;;;13.25;13.25;;;;;;;;3724661;37;20701;-63
2021/04/27 10:31:23;;;;;;;;;12.75;12.75;;;;;;;;3724620;38;20908;-64
2021/04/27 10:34:05;;;;;;;;;13.50;13.00;;;;;;;;3724509;37;20875;-65
2021/04/27 10:36:33;;;;;;;;;15.75;13.75;;;;;;;;3724738;37;20896;-65
2021/04/27 10:39:01;;;;;;;;;13.00;12.75;;;;;;;;3724681;38;20845;-65
2021/04/27 10:41:47;;;;;;;;;11.75;11.50;;;;;;;;3724052;38;20866;-65
2021/04/27 10:44:13;;;;;;;;;11.75;11.75;;;;;;;;3724405;37;20911;-65
2021/04/27 10:46:45;;;;;;;;;11.00;11.00;;;;;;;;3724875;37;20902;-65
2021/04/27 10:49:23;;;;;;;;;10.25;10.25;;;;;;;;3724778;37;20878;-65
2021/04/27 10:51:51;;;;;;;;;8.50;8.50;;;;;;;;3724879;37;20918;-64
2021/04/27 10:54:21;;;;;;;;;14.00;10.75;;;;;;;;3724719;38;20793;-64
2021/04/27 10:56:52;;;;;;;;;10.00;9.25;;;;;;;;3725318;37;20864;-65
2021/04/27 10:59:23;;;;;;;;;14.00;14.00;;;;;;;;3725038;38;20858;-67
2021/04/27 11:02:06;;;;;;;;;9.75;9.75;;;;;;;;3725082;38;20841;-66
2021/04/27 11:04:45;;;;;;;;;9.00;9.00;;;;;;;;3724917;38;20778;-67
2021/04/27 11:07:36;;;;;;;;;12.25;11.00;;;;;;;;3725140;38;20746;-67
2021/04/27 11:10:22;;;;;;;;;7.25;7.00;;;;;;;;3725080;37;20850;-65
2021/04/27 11:12:55;;;;;;;;;11.00;10.75;;;;;;;;3725276;38;20710;-66
2021/04/27 11:15:22;;;;;;;;;8.75;8.75;;;;;;;;3725087;37;20825;-66
2021/04/27 11:17:59;;;;;;;;;13.00;12.75;;;;;;;;3724874;37;20708;-65
2021/04/27 11:20:48;;;;;;;;;9.25;9.25;;;;;;;;3724798;37;20852;-66
2021/04/27 11:23:51;;;;;;;;;10.75;10.75;;;;;;;;3724677;37;20658;-65
2021/04/27 11:26:52;;;;;;;;;10.25;9.50;;;;;;;;3725023;37;20769;-66
2021/04/27 11:29:22;;;;;;;;;13.00;10.00;;;;;;;;3725075;38;20731;-67
2021/04/27 11:31:59;;;;;;;;;12.75;11.50;;;;;;;;3724955;38;20811;-65
2021/04/27 11:34:25;;;;;;;;;9.00;9.00;;;;;;;;3725143;38;20787;-66
2021/04/27 11:36:51;;;;;;;;;10.00;10.00;;;;;;;;3725108;38;20767;-66
2021/04/27 11:39:19;;;;;;;;;14.00;12.00;;;;;;;;3725141;37;20855;-65
2021/04/27 11:41:46;;;;;;;;;10.00;9.25;;;;;;;;3725159;38;17834;-66
2021/04/27 11:44:22;;;;;;;;;11.00;11.00;;;;;;;;3724818;37;20784;-66
2021/04/27 11:47:17;;;;;;;;;10.50;10.50;;;;;;;;3725031;38;20790;-67
2021/04/27 11:49:55;;;;;;;;;12.50;12.50;;;;;;;;3725090;37;20783;-67
2021/04/27 11:52:52;;;;;;;;;9.75;9.25;;;;;;;;3725943;37;20776;-67
2021/04/27 11:55:22;;;;;;;;;12.00;10.75;;;;;;;;3725574;37;20756;-66
2021/04/27 11:57:51;;;;;;;;;11.00;10.75;;;;;;;;3725271;37;20808;-65
2021/04/27 12:00:17;;;;;;;;;4.00;4.00;;;;;;;;3724821;37;20778;-65
2021/04/27 12:02:43;;;;;;;;;8.25;8.00;;;;;;;;3725582;38;20709;-65
2021/04/27 12:05:10;;;;;;;;;9.00;9.00;;;;;;;;3725842;38;20681;-66
2021/04/27 12:07:36;;;;;;;;;8.00;7.00;;;;;;;;3725782;37;17714;-66
2021/04/27 12:10:04;;;;;;;;;7.25;6.75;;;;;;;;3724959;37;20686;-64
2021/04/27 12:12:30;;;;;;;;;6.00;6.00;;;;;;;;3724845;38;20681;-65
2021/04/27 12:14:56;;;;;;;;;7.00;6.00;;;;;;;;3724936;37;20785;-66
2021/04/27 12:17:26;;;;;;;;;7.50;7.50;;;;;;;;3725060;38;17701;-66
2021/04/27 12:20:23;;;;;;;;;6.75;6.75;;;;;;;;3724888;37;20666;-65
2021/04/27 12:22:55;;;;;;;;;13.00;11.50;;;;;;;;3725131;37;20687;-64
2021/04/27 12:25:26;;;;;;;;;8.25;8.25;;;;;;;;3724733;38;20749;-64
2021/04/27 12:28:11;;;;;;;;;7.50;7.00;;;;;;;;3724749;38;20728;-66
2021/04/27 12:30:38;;;;;;;;;5.00;5.00;;;;;;;;3724948;38;20679;-67
2021/04/27 12:33:09;;;;;;;;;9.00;9.00;;;;;;;;3724815;37;20654;-65
2021/04/27 12:35:36;;;;;;;;;8.25;8.00;;;;;;;;3724973;38;20656;-66
2021/04/27 12:38:03;;;;;;;;;10.75;10.75;;;;;;;;3724978;37;20639;-65
2021/04/27 12:40:31;;;;;;;;;9.00;9.00;;;;;;;;3724949;38;20701;-65
2021/04/27 12:43:03;;;;;;;;;8.75;8.50;;;;;;;;3724759;38;20720;-63
2021/04/27 12:45:40;;;;;;;;;6.50;6.50;;;;;;;;3725093;38;20591;-66
2021/04/27 12:48:06;;;;;;;;;12.75;11.50;;;;;;;;3724908;37;20644;-65
2021/04/27 12:50:34;;;;;;;;;12.50;12.50;;;;;;;;3724815;37;21694;-65
2021/04/27 12:53:04;;;;;;;;;8.00;8.00;;;;;;;;3724855;37;20736;-65
2021/04/27 12:55:31;;;;;;;;;9.00;9.00;;;;;;;;3724840;37;20678;-65
2021/04/27 12:58:09;;;;;;;;;8.50;7.75;;;;;;;;3724926;37;20631;-67
2021/04/27 13:00:46;;;;;;;;;9.75;9.75;;;;;;;;3724674;37;20582;-65
2021/04/27 13:03:16;;;;;;;;;9.25;8.50;;;;;;;;3725021;37;20591;-66
2021/04/27 13:05:42;;;;;;;;;8.25;8.00;;;;;;;;3725044;37;21591;-66
2021/04/27 13:08:08;;;;;;;;;8.00;8.00;;;;;;;;3726742;37;20581;-66
2021/04/27 13:10:38;;;;;;;;;10.50;9.75;;;;;;;;3725227;37;17645;-68
2021/04/27 13:13:09;;;;;;;;;7.25;7.25;;;;;;;;3724649;37;21655;-66
2021/04/27 13:15:35;;;;;;;;;7.25;7.25;;;;;;;;3724898;37;21529;-67
2021/04/27 13:18:02;;;;;;;;;7.00;7.00;;;;;;;;3724498;38;21548;-67
2021/04/27 13:20:40;;;;;;;;;6.75;6.75;;;;;;;;3724926;38;18607;-67
2021/04/27 13:23:07;;;;;;;;;10.25;9.50;;;;;;;;3724870;37;21482;-69
2021/04/27 13:25:36;;;;;;;;;8.75;8.25;;;;;;;;3724793;37;21604;-66
2021/04/27 13:28:04;;;;;;;;;8.00;8.00;;;;;;;;3725050;38;21546;-65
2021/04/27 13:30:33;;;;;;;;;9.50;9.50;;;;;;;;3724853;37;21194;-65
2021/04/27 13:33:03;;;;;;;;;6.75;6.50;;;;;;;;3725086;38;21361;-65
2021/04/27 13:35:30;;;;;;;;;9.00;8.00;;;;;;;;3724936;38;21463;-68
2021/04/27 13:37:57;;;;;;;;;10.00;10.00;;;;;;;;3725123;38;21508;-70
2021/04/27 13:40:23;;;;;;;;;8.75;8.75;;;;;;;;3725130;37;21661;-67
2021/04/27 13:42:57;;;;;;;;;9.25;9.00;;;;;;;;3724957;38;21513;-66
2021/04/27 13:45:23;;;;;;;;;10.50;9.75;;;;;;;;3725000;37;21590;-67
2021/04/27 13:47:50;;;;;;;;;14.25;11.75;;;;;;;;3725102;38;21577;-66
2021/04/27 13:50:17;;;;;;;;;10.00;10.00;;;;;;;;3725121;38;21617;-67
2021/04/27 13:52:43;;;;;;;;;9.00;9.00;;;;;;;;3725202;37;21510;-67
2021/04/27 13:55:09;;;;;;;;;9.00;9.00;;;;;;;;3724894;37;21565;-65
2021/04/27 13:57:35;;;;;;;;;10.75;9.75;;;;;;;;3725366;37;21485;-67
2021/04/27 14:00:02;;;;;;;;;10.75;10.75;;;;;;;;3724876;37;21544;-66
2021/04/27 14:02:28;;;;;;;;;9.00;9.00;;;;;;;;3725435;38;18451;-66
2021/04/27 14:04:54;;;;;;;;;8.50;8.00;;;;;;;;3725982;38;20769;-67
2021/04/27 14:07:20;;;;;;;;;6.75;6.25;;;;;;;;3731606;37;18448;-66
2021/04/27 14:09:45;;;;;;;;;10.25;9.50;;;;;;;;3725612;37;18454;-66
2021/04/27 14:12:12;;;;;;;;;8.25;8.25;;;;;;;;3725295;37;17424;-67
2021/04/27 14:14:38;;;;;;;;;9.25;8.25;;;;;;;;3725612;37;18420;-67
2021/04/27 14:17:04;;;;;;;;;8.25;8.25;;;;;;;;3725693;38;20817;-67
2021/04/27 14:19:36;;;;;;;;;10.00;10.00;;;;;;;;3725224;37;18441;-67
2021/04/27 14:22:02;;;;;;;;;8.75;8.75;;;;;;;;3725829;37;18416;-66
2021/04/27 14:24:28;;;;;;;;;8.75;8.75;;;;;;;;3725954;38;20781;-67
2021/04/27 14:26:54;;;;;;;;;9.75;9.25;;;;;;;;3725486;37;18418;-66